Time;durP1;ratioP1;P1;durP2;ratioP2;P2;SDS_P1;SDS_P2;PMS_P1;PMS_P2;Temp;Humidity;BMP_temperature;BMP_pressure;BME280_temperature;BME280_humidity;BME280_pressure;Samples;Min_cycle;Max_cycle;Signal;HPM_P1;HPM_P2
2022/03/18 00:02:14;;;;;;;9.82;3.42;;;4.30;99.90;;;;;;5057229;28;20037;-63
2022/03/18 00:04:40;;;;;;;16.10;3.75;;;4.20;99.90;;;;;;5062210;28;20032;-62
2022/03/18 00:07:07;;;;;;;12.55;3.38;;;4.20;99.90;;;;;;5057493;28;20374;-62
2022/03/18 00:09:33;;;;;;;18.17;3.67;;;4.10;99.90;;;;;;5052609;28;20588;-62
2022/03/18 00:11:58;;;;;;;10.95;3.08;;;4.10;99.90;;;;;;5052519;28;20060;-60
2022/03/18 00:14:24;;;;;;;14.15;4.57;;;4.10;99.90;;;;;;5053682;28;20455;-62
2022/03/18 00:16:50;;;;;;;14.32;3.72;;;4.00;99.90;;;;;;5054513;28;20056;-62
2022/03/18 00:19:16;;;;;;;7.97;3.70;;;4.00;99.90;;;;;;5053268;28;20067;-62
2022/03/18 00:21:42;;;;;;;11.00;2.95;;;4.00;99.90;;;;;;5053878;28;20052;-63
2022/03/18 00:24:07;;;;;;;9.70;3.20;;;4.00;99.90;;;;;;5054503;28;20115;-62
2022/03/18 00:26:33;;;;;;;10.15;3.03;;;3.90;99.90;;;;;;5052940;28;20078;-66
2022/03/18 00:28:59;;;;;;;9.95;3.22;;;3.90;99.90;;;;;;5052324;28;20044;-63
2022/03/18 00:31:24;;;;;;;14.50;3.45;;;3.90;99.90;;;;;;5054218;28;20036;-62
2022/03/18 00:33:50;;;;;;;12.75;3.78;;;3.90;99.90;;;;;;5053389;28;20468;-63
2022/03/18 00:36:16;;;;;;;11.75;2.85;;;3.90;99.90;;;;;;5054301;28;20104;-62
2022/03/18 00:38:43;;;;;;;11.45;2.97;;;3.90;99.90;;;;;;5053664;28;20028;-62
2022/03/18 00:41:08;;;;;;;8.05;3.00;;;3.80;99.90;;;;;;5054400;28;20036;-63
2022/03/18 00:43:34;;;;;;;9.45;3.20;;;3.80;99.90;;;;;;5054752;28;20035;-62
2022/03/18 00:45:59;;;;;;;7.82;2.80;;;3.80;99.90;;;;;;5055257;28;20033;-64
2022/03/18 00:53:54;;;;;;;9.65;3.90;;;3.70;99.90;;;;;;5053834;28;20047;-61
2022/03/18 00:56:20;;;;;;;14.23;3.58;;;3.70;99.90;;;;;;5055658;28;20033;-62
2022/03/18 00:58:45;;;;;;;7.68;2.33;;;3.70;99.90;;;;;;5053733;28;20037;-62
2022/03/18 01:01:11;;;;;;;9.90;2.88;;;3.70;99.90;;;;;;5054151;28;20025;-62
2022/03/18 01:03:37;;;;;;;11.00;2.78;;;3.80;99.90;;;;;;5053118;28;20055;-63
2022/03/18 01:06:03;;;;;;;10.30;3.42;;;3.70;99.90;;;;;;5053656;28;20037;-62
2022/03/18 01:08:29;;;;;;;21.65;4.03;;;3.80;99.90;;;;;;5054081;28;20067;-63
2022/03/18 01:10:54;;;;;;;18.83;3.67;;;3.80;99.90;;;;;;5053970;28;20037;-62
2022/03/18 01:13:21;;;;;;;14.02;3.72;;;3.80;99.90;;;;;;5054561;28;20021;-62
2022/03/18 01:15:47;;;;;;;20.05;4.03;;;3.80;99.90;;;;;;5053791;28;20044;-63
2022/03/18 01:18:12;;;;;;;10.75;3.63;;;3.70;99.90;;;;;;5052887;28;20041;-61
2022/03/18 01:20:38;;;;;;;10.45;3.88;;;3.70;99.90;;;;;;5052667;28;20021;-63
2022/03/18 01:23:06;;;;;;;8.63;2.90;;;3.60;99.90;;;;;;5053969;28;20033;-62
2022/03/18 01:25:32;;;;;;;11.10;3.25;;;3.70;99.90;;;;;;5054846;28;20025;-63
2022/03/18 01:27:58;;;;;;;10.32;3.40;;;3.60;99.90;;;;;;5052402;28;20041;-61
2022/03/18 01:30:24;;;;;;;12.65;3.42;;;3.60;99.90;;;;;;5053181;28;20033;-61
2022/03/18 01:32:50;;;;;;;10.57;3.22;;;3.60;99.90;;;;;;5054340;28;20123;-62
2022/03/18 01:35:15;;;;;;;15.77;3.75;;;3.50;99.90;;;;;;5054454;28;20118;-62
2022/03/18 01:37:41;;;;;;;13.68;3.38;;;3.50;99.90;;;;;;5053572;28;20029;-62
2022/03/18 01:40:07;;;;;;;11.30;3.67;;;3.50;99.90;;;;;;5053948;28;20037;-62
2022/03/18 01:42:32;;;;;;;9.18;2.65;;;3.50;99.90;;;;;;5055291;28;20037;-62
2022/03/18 01:44:58;;;;;;;13.80;4.03;;;3.50;99.90;;;;;;5052995;28;20040;-62
2022/03/18 01:47:24;;;;;;;9.13;3.03;;;3.50;99.90;;;;;;5054160;28;20044;-62
2022/03/18 01:49:50;;;;;;;12.48;3.20;;;3.40;99.90;;;;;;5052529;28;20037;-61
2022/03/18 01:52:15;;;;;;;7.50;2.78;;;3.40;99.90;;;;;;5053616;28;20432;-62
2022/03/18 01:54:44;;;;;;;8.88;3.20;;;3.40;99.90;;;;;;5047028;28;20527;-62
2022/03/18 01:57:11;;;;;;;18.85;4.65;;;3.30;99.90;;;;;;5052943;28;20108;-61
2022/03/18 01:59:37;;;;;;;12.07;3.75;;;3.30;99.90;;;;;;5051889;28;20029;-62
2022/03/18 02:02:02;;;;;;;9.10;3.75;;;3.30;99.90;;;;;;5052273;28;20536;-62
2022/03/18 02:04:28;;;;;;;8.57;3.45;;;3.30;99.90;;;;;;5050888;28;20485;-61
2022/03/18 02:06:55;;;;;;;11.73;3.65;;;3.30;99.90;;;;;;5050279;28;20671;-61
2022/03/18 02:09:20;;;;;;;10.60;3.83;;;3.30;99.90;;;;;;5051412;28;20033;-62
2022/03/18 02:11:46;;;;;;;15.73;5.43;;;3.20;99.90;;;;;;5051722;28;20036;-61
2022/03/18 02:14:12;;;;;;;15.95;4.95;;;3.20;99.90;;;;;;5052083;28;20056;-63
2022/03/18 02:16:39;;;;;;;10.95;4.07;;;3.20;99.90;;;;;;5051745;28;20151;-62
2022/03/18 02:19:06;;;;;;;14.45;4.00;;;3.20;99.90;;;;;;5049283;28;20697;-61
2022/03/18 02:21:37;;;;;;;19.27;5.15;;;3.20;99.90;;;;;;5049844;28;20033;-62
2022/03/18 02:24:04;;;;;;;10.02;4.10;;;3.10;99.90;;;;;;5044647;28;20712;-62
2022/03/18 02:26:29;;;;;;;10.70;3.90;;;3.10;99.90;;;;;;5045631;28;20029;-62
2022/03/18 02:28:58;;;;;;;11.77;4.07;;;3.10;99.90;;;;;;5048973;28;20715;-61
2022/03/18 02:31:29;;;;;;;16.35;4.15;;;3.10;99.90;;;;;;5049382;28;20048;-62
2022/03/18 02:33:55;;;;;;;12.18;4.40;;;3.10;99.90;;;;;;5047919;28;20063;-62
2022/03/18 02:36:20;;;;;;;9.80;3.67;;;3.00;99.90;;;;;;5049581;28;20493;-61
2022/03/18 02:38:46;;;;;;;13.10;4.43;;;3.00;99.90;;;;;;5049145;28;20033;-62
2022/03/18 02:41:12;;;;;;;13.32;4.38;;;3.00;99.90;;;;;;5049089;28;20171;-62
2022/03/18 02:43:38;;;;;;;13.35;4.30;;;3.00;99.90;;;;;;5049292;28;20029;-62
2022/03/18 02:46:05;;;;;;;12.90;4.03;;;3.00;99.90;;;;;;5049434;28;20037;-61
2022/03/18 02:48:30;;;;;;;13.02;4.28;;;3.00;99.90;;;;;;5048687;28;20401;-61
2022/03/18 02:50:56;;;;;;;13.60;4.72;;;3.00;99.90;;;;;;5048679;28;20044;-62
2022/03/18 02:53:22;;;;;;;20.50;4.22;;;3.00;99.90;;;;;;5048236;28;20041;-62
2022/03/18 02:55:48;;;;;;;9.05;4.30;;;3.00;99.90;;;;;;5048096;28;20441;-62
2022/03/18 02:58:14;;;;;;;14.30;4.35;;;3.00;99.90;;;;;;5047726;28;20564;-62
2022/03/18 03:00:39;;;;;;;10.55;3.78;;;2.90;99.90;;;;;;5048617;28;20119;-62
2022/03/18 03:03:05;;;;;;;8.98;3.50;;;2.90;99.90;;;;;;5049197;28;20397;-62
2022/03/18 03:08:15;;;;;;;15.32;4.68;;;2.90;99.90;;;;;;5047340;28;20055;-61
2022/03/18 03:10:42;;;;;;;10.75;4.35;;;2.80;99.90;;;;;;5048595;28;20112;-62
2022/03/18 03:13:10;;;;;;;11.15;4.25;;;2.90;99.90;;;;;;5049980;28;20026;-63
2022/03/18 03:15:38;;;;;;;8.73;3.97;;;2.90;99.90;;;;;;5049813;28;20029;-62
2022/03/18 03:18:04;;;;;;;12.20;3.97;;;2.90;99.90;;;;;;5050296;28;20473;-62
2022/03/18 03:20:31;;;;;;;9.82;3.13;;;2.90;99.90;;;;;;5049943;28;20025;-61
2022/03/18 03:22:57;;;;;;;12.02;3.97;;;2.80;99.90;;;;;;5044666;28;20026;-62
2022/03/18 03:25:23;;;;;;;10.88;3.25;;;2.80;99.90;;;;;;5049046;28;20041;-61
2022/03/18 03:27:51;;;;;;;12.68;3.50;;;2.80;99.90;;;;;;5047230;28;20029;-61
2022/03/18 03:30:17;;;;;;;11.52;3.53;;;2.80;99.90;;;;;;5047059;28;20033;-61
2022/03/18 03:32:43;;;;;;;11.43;4.30;;;2.80;99.90;;;;;;5048114;28;20063;-62
2022/03/18 03:35:08;;;;;;;9.23;3.30;;;2.70;99.90;;;;;;5048316;28;20044;-60
2022/03/18 03:37:34;;;;;;;16.80;4.63;;;2.70;99.90;;;;;;5048172;28;20171;-61
2022/03/18 03:40:00;;;;;;;13.68;4.47;;;2.70;99.90;;;;;;5048523;28;20045;-61
2022/03/18 03:42:25;;;;;;;13.27;3.80;;;2.70;99.90;;;;;;5047403;28;20481;-61
2022/03/18 03:44:51;;;;;;;11.30;4.13;;;2.70;99.90;;;;;;5048228;28;20037;-62
2022/03/18 03:47:17;;;;;;;11.57;3.88;;;2.60;99.90;;;;;;5048482;28;20123;-62
2022/03/18 03:49:44;;;;;;;14.95;4.45;;;2.60;99.90;;;;;;5048349;28;20066;-62
2022/03/18 03:52:10;;;;;;;9.38;3.55;;;2.70;99.90;;;;;;5047043;28;20086;-60
2022/03/18 03:54:37;;;;;;;10.90;3.92;;;2.70;99.90;;;;;;5048021;28;20041;-60
2022/03/18 03:57:06;;;;;;;21.73;5.50;;;2.70;99.90;;;;;;5048620;28;20044;-62
2022/03/18 03:59:32;;;;;;;10.23;3.85;;;2.80;99.90;;;;;;5047022;28;20063;-61
2022/03/18 04:01:58;;;;;;;10.88;3.58;;;2.80;99.90;;;;;;5051599;28;20033;-63
2022/03/18 04:04:25;;;;;;;12.13;3.67;;;2.80;99.90;;;;;;5050787;28;20044;-62
2022/03/18 04:06:50;;;;;;;9.10;3.58;;;2.80;99.90;;;;;;5052033;28;20120;-61
2022/03/18 04:09:16;;;;;;;9.35;3.42;;;2.80;99.90;;;;;;5051974;28;20136;-61
2022/03/18 04:11:42;;;;;;;13.30;5.07;;;2.80;99.90;;;;;;5049907;28;20044;-62
2022/03/18 04:14:07;;;;;;;9.25;4.63;;;2.80;99.90;;;;;;5051500;28;20482;-63
2022/03/18 04:16:33;;;;;;;17.13;4.88;;;2.80;99.90;;;;;;5050633;28;20521;-61
2022/03/18 04:18:58;;;;;;;14.75;4.40;;;2.80;99.90;;;;;;5051369;28;20048;-61
2022/03/18 04:21:24;;;;;;;18.10;4.70;;;2.90;99.90;;;;;;5051855;28;20025;-62
2022/03/18 04:23:50;;;;;;;8.85;3.60;;;2.90;99.90;;;;;;5051373;28;20111;-61
2022/03/18 04:26:15;;;;;;;12.93;4.95;;;2.80;99.90;;;;;;5051713;28;20060;-61
2022/03/18 04:28:41;;;;;;;24.15;4.22;;;2.80;99.90;;;;;;5051320;28;20037;-62
2022/03/18 04:31:06;;;;;;;16.73;3.92;;;2.80;99.90;;;;;;5051775;28;20033;-61
2022/03/18 04:33:32;;;;;;;12.25;4.25;;;2.80;99.90;;;;;;5051615;28;20033;-62
2022/03/18 04:35:57;;;;;;;16.20;5.18;;;2.80;99.90;;;;;;5051515;28;20029;-62
2022/03/18 04:38:23;;;;;;;17.88;5.10;;;2.70;99.90;;;;;;5050328;28;20415;-62
2022/03/18 04:40:49;;;;;;;12.38;5.00;;;2.70;99.90;;;;;;5050849;28;20140;-61
2022/03/18 04:43:15;;;;;;;14.38;4.30;;;2.70;99.90;;;;;;5055039;28;20060;-62
2022/03/18 04:45:41;;;;;;;10.80;4.30;;;2.70;99.90;;;;;;5051025;28;20036;-62
2022/03/18 04:48:06;;;;;;;12.05;4.53;;;2.70;99.90;;;;;;5050105;28;20029;-62
2022/03/18 04:50:32;;;;;;;12.15;3.65;;;2.60;99.90;;;;;;5051184;28;20029;-62
2022/03/18 04:52:58;;;;;;;9.70;4.32;;;2.60;99.90;;;;;;5048873;28;20033;-61
2022/03/18 04:55:23;;;;;;;11.48;4.43;;;2.60;99.90;;;;;;5051037;28;20049;-62
2022/03/18 04:57:49;;;;;;;12.68;3.97;;;2.50;99.90;;;;;;5050849;28;20672;-62
2022/03/18 05:00:15;;;;;;;11.77;4.07;;;2.50;99.90;;;;;;5051015;28;20071;-62
2022/03/18 05:02:41;;;;;;;11.45;4.00;;;2.60;99.90;;;;;;5050712;28;20535;-62
2022/03/18 05:05:10;;;;;;;8.00;3.05;;;2.60;99.90;;;;;;5051240;28;20033;-62
2022/03/18 05:07:39;;;;;;;8.93;3.40;;;2.70;99.90;;;;;;5050744;28;20535;-62
2022/03/18 05:10:06;;;;;;;8.82;4.05;;;2.70;99.90;;;;;;5049137;28;20040;-61
2022/03/18 05:12:32;;;;;;;12.63;4.15;;;2.60;99.90;;;;;;5050129;28;20037;-61
2022/03/18 05:14:58;;;;;;;12.88;4.88;;;2.60;99.90;;;;;;5050470;28;20129;-62
2022/03/18 05:17:23;;;;;;;8.60;3.85;;;2.60;99.90;;;;;;5051063;28;20058;-61
2022/03/18 05:19:49;;;;;;;14.57;4.25;;;2.60;99.90;;;;;;5049214;28;20048;-61
2022/03/18 05:22:15;;;;;;;9.13;3.17;;;2.60;99.90;;;;;;5049314;28;20523;-61
2022/03/18 05:24:41;;;;;;;9.23;4.07;;;2.50;99.90;;;;;;5050302;28;20033;-61
2022/03/18 05:27:06;;;;;;;8.52;3.30;;;2.50;99.90;;;;;;5050720;28;20033;-62
2022/03/18 05:29:32;;;;;;;10.60;3.05;;;2.50;99.90;;;;;;5050712;28;20029;-61
2022/03/18 05:31:59;;;;;;;8.07;3.08;;;2.50;99.90;;;;;;5050086;28;20545;-61
2022/03/18 05:34:25;;;;;;;6.32;3.35;;;2.50;99.90;;;;;;5050595;28;20116;-62
2022/03/18 05:36:50;;;;;;;19.75;4.28;;;2.40;99.90;;;;;;5049993;28;20139;-62
2022/03/18 05:39:16;;;;;;;11.27;3.45;;;2.40;99.90;;;;;;5048785;28;20397;-61
2022/03/18 05:41:45;;;;;;;12.40;3.75;;;2.40;99.90;;;;;;5051473;28;20065;-61
2022/03/18 05:44:11;;;;;;;7.72;3.13;;;2.50;99.90;;;;;;5050902;28;20043;-62
2022/03/18 05:46:37;;;;;;;13.07;4.05;;;2.40;99.90;;;;;;5049793;28;20037;-61
2022/03/18 05:49:03;;;;;;;8.05;3.03;;;2.40;99.90;;;;;;5048870;28;20056;-61
2022/03/18 05:51:30;;;;;;;8.52;3.50;;;2.40;99.90;;;;;;5048505;28;20079;-61
2022/03/18 05:53:56;;;;;;;8.32;3.70;;;2.40;99.90;;;;;;5049810;28;20049;-62
2022/03/18 05:59:07;;;;;;;6.78;3.00;;;2.40;99.90;;;;;;5048497;28;20193;-61
2022/03/18 06:01:37;;;;;;;14.13;3.30;;;2.40;99.90;;;;;;5049720;28;20119;-61
2022/03/18 06:04:04;;;;;;;9.60;3.07;;;2.40;99.90;;;;;;5049674;28;20041;-62
2022/03/18 06:06:30;;;;;;;10.75;3.17;;;2.40;99.90;;;;;;5050145;28;20276;-62
2022/03/18 06:11:57;;;;;;;7.30;3.55;;;2.40;99.90;;;;;;5049125;28;20040;-63
2022/03/18 06:14:25;;;;;;;14.07;4.20;;;2.40;99.90;;;;;;5048409;28;20037;-61
2022/03/18 06:16:56;;;;;;;10.18;3.13;;;2.50;99.90;;;;;;5049729;28;20037;-61
2022/03/18 06:19:24;;;;;;;12.50;3.65;;;2.50;99.90;;;;;;5049376;28;20079;-62
2022/03/18 06:21:50;;;;;;;9.10;2.72;;;2.50;99.90;;;;;;5047908;28;20021;-62
2022/03/18 06:24:17;;;;;;;7.78;3.20;;;2.60;99.90;;;;;;5049755;28;20036;-61
2022/03/18 06:26:43;;;;;;;10.45;2.70;;;2.60;99.90;;;;;;5049547;28;20220;-61
2022/03/18 06:29:08;;;;;;;12.70;3.42;;;2.60;99.90;;;;;;5052588;28;20048;-63
2022/03/18 06:31:35;;;;;;;12.00;3.38;;;2.70;99.90;;;;;;5050189;28;20035;-63
2022/03/18 06:34:02;;;;;;;8.52;2.70;;;2.70;99.90;;;;;;5050479;28;20262;-62
2022/03/18 06:36:28;;;;;;;9.73;3.70;;;2.70;99.90;;;;;;5049248;28;20082;-61
2022/03/18 06:38:54;;;;;;;13.32;2.83;;;2.80;99.90;;;;;;5048720;28;20146;-61
2022/03/18 06:41:20;;;;;;;8.43;3.50;;;2.90;99.90;;;;;;5049262;28;20028;-62
2022/03/18 06:43:47;;;;;;;7.63;3.47;;;2.90;99.90;;;;;;5049859;28;20404;-61
2022/03/18 06:46:16;;;;;;;8.80;2.83;;;3.00;99.90;;;;;;5048916;28;20028;-62
2022/03/18 06:48:42;;;;;;;8.40;2.88;;;3.10;99.90;;;;;;5048854;28;20493;-61
2022/03/18 06:51:08;;;;;;;6.60;3.20;;;3.10;99.90;;;;;;5049011;28;20125;-61
2022/03/18 06:53:34;;;;;;;9.43;3.40;;;3.20;99.90;;;;;;5048744;28;20116;-65
2022/03/18 06:56:00;;;;;;;9.35;3.88;;;3.30;99.90;;;;;;5048947;28;20033;-62
2022/03/18 06:58:27;;;;;;;10.77;3.75;;;3.40;99.90;;;;;;5049331;28;20032;-62
2022/03/18 07:00:54;;;;;;;10.05;3.40;;;3.50;99.90;;;;;;5048815;28;20432;-61
2022/03/18 07:03:19;;;;;;;12.30;3.80;;;3.50;99.90;;;;;;5049160;28;20021;-62
2022/03/18 07:05:45;;;;;;;17.20;4.00;;;3.60;99.90;;;;;;5046238;28;20497;-61
2022/03/18 07:08:10;;;;;;;11.30;4.25;;;3.70;99.90;;;;;;5047700;28;20115;-62
2022/03/18 07:10:36;;;;;;;8.35;3.75;;;3.80;99.90;;;;;;5046373;28;20516;-62
2022/03/18 07:13:02;;;;;;;10.75;3.33;;;3.90;99.90;;;;;;5047753;28;20041;-61
2022/03/18 07:15:27;;;;;;;10.43;4.30;;;4.00;99.90;;;;;;5047713;28;20188;-61
2022/03/18 07:17:59;;;;;;;11.15;4.28;;;4.20;99.90;;;;;;5047200;28;20063;-62
2022/03/18 07:20:29;;;;;;;20.25;4.90;;;4.50;99.90;;;;;;5042669;28;20063;-62
2022/03/18 07:23:08;;;;;;;14.55;5.88;;;4.70;99.90;;;;;;5047542;28;20052;-62
2022/03/18 07:25:42;;;;;;;17.33;5.28;;;5.00;99.90;;;;;;5046765;28;20040;-62
2022/03/18 07:28:10;;;;;;;13.32;5.40;;;5.30;99.90;;;;;;5047120;28;20051;-62
2022/03/18 07:30:40;;;;;;;14.80;5.85;;;5.50;99.90;;;;;;5044214;28;20041;-62
2022/03/18 07:33:06;;;;;;;15.60;6.28;;;5.80;99.90;;;;;;5047958;28;20048;-62
2022/03/18 07:35:32;;;;;;;14.57;5.35;;;6.00;99.90;;;;;;5046825;28;20489;-61
2022/03/18 07:37:59;;;;;;;18.55;5.70;;;6.20;99.90;;;;;;5048811;28;20088;-61
2022/03/18 07:40:24;;;;;;;13.65;4.90;;;6.40;99.90;;;;;;5047725;28;20033;-62
2022/03/18 07:42:56;;;;;;;15.02;5.30;;;6.60;99.90;;;;;;5049570;28;20451;-60
2022/03/18 07:45:31;;;;;;;16.08;4.78;;;6.90;99.90;;;;;;5051510;28;20037;-62
2022/03/18 07:47:59;;;;;;;11.75;5.30;;;7.30;99.90;;;;;;5050864;28;20046;-62
2022/03/18 07:50:27;;;;;;;14.52;4.55;;;7.80;99.90;;;;;;5051626;28;20036;-62
2022/03/18 07:52:58;;;;;;;19.05;4.47;;;8.40;99.90;;;;;;5050624;28;20073;-61
2022/03/18 07:55:25;;;;;;;16.92;4.97;;;9.00;99.90;;;;;;5051014;28;20033;-61
2022/03/18 07:57:52;;;;;;;11.80;4.05;;;9.10;99.90;;;;;;5052178;28;20052;-61
2022/03/18 08:00:18;;;;;;;14.93;4.10;;;9.20;99.90;;;;;;5051590;28;20087;-62
2022/03/18 08:02:45;;;;;;;14.88;5.47;;;9.10;99.90;;;;;;5045973;28;20075;-62
2022/03/18 08:05:12;;;;;;;11.00;4.20;;;9.10;99.90;;;;;;5047577;28;20099;-62
2022/03/18 08:07:42;;;;;;;11.70;4.35;;;9.00;99.90;;;;;;5048417;28;20025;-61
2022/03/18 08:10:09;;;;;;;6.43;2.80;;;9.00;99.90;;;;;;5050733;28;20405;-62
2022/03/18 08:12:38;;;;;;;13.23;4.47;;;9.00;99.90;;;;;;5049192;28;20029;-64
2022/03/18 08:15:06;;;;;;;6.90;3.08;;;9.00;99.90;;;;;;5051108;28;20040;-62
2022/03/18 08:17:32;;;;;;;16.55;4.47;;;9.00;99.90;;;;;;5047642;28;20029;-62
2022/03/18 08:19:59;;;;;;;11.80;3.70;;;9.10;99.90;;;;;;5047847;28;20489;-61
2022/03/18 08:22:26;;;;;;;8.80;3.35;;;9.10;99.90;;;;;;5047230;28;20033;-62
2022/03/18 08:24:52;;;;;;;10.88;4.90;;;9.10;99.90;;;;;;5050670;28;20397;-61
2022/03/18 08:27:18;;;;;;;11.15;3.38;;;9.30;99.90;;;;;;5050830;28;20036;-62
2022/03/18 08:29:45;;;;;;;10.35;3.22;;;9.40;99.90;;;;;;5050632;28;20404;-62
2022/03/18 08:32:15;;;;;;;9.52;3.00;;;9.50;99.90;;;;;;5050625;28;20107;-62
2022/03/18 08:34:41;;;;;;;12.27;3.30;;;9.60;99.90;;;;;;5044141;28;20033;-63
2022/03/18 08:37:07;;;;;;;14.48;3.47;;;9.60;99.90;;;;;;5045518;28;20041;-61
2022/03/18 08:39:33;;;;;;;8.65;3.20;;;9.80;99.90;;;;;;5045354;28;20037;-62
2022/03/18 08:41:59;;;;;;;19.65;4.15;;;9.80;99.90;;;;;;5050282;28;20045;-62
2022/03/18 08:44:25;;;;;;;13.10;3.50;;;9.80;99.90;;;;;;5052320;28;20029;-64
2022/03/18 08:46:50;;;;;;;11.82;3.90;;;9.90;99.90;;;;;;5050267;28;20032;-61
2022/03/18 08:49:16;;;;;;;8.02;3.45;;;9.90;99.90;;;;;;5045005;28;20052;-61
2022/03/18 08:51:42;;;;;;;10.85;3.20;;;10.00;99.90;;;;;;5046849;28;20053;-62
2022/03/18 08:54:08;;;;;;;10.55;3.53;;;10.10;99.90;;;;;;5046605;28;20025;-62
2022/03/18 08:56:33;;;;;;;10.00;2.40;;;10.20;99.90;;;;;;5048549;28;20037;-63
2022/03/18 08:59:01;;;;;;;11.45;3.47;;;10.30;99.90;;;;;;5047522;28;20048;-62
2022/03/18 09:01:27;;;;;;;8.48;3.13;;;10.40;99.90;;;;;;5045896;28;20083;-61
2022/03/18 09:03:52;;;;;;;11.80;2.78;;;10.50;99.90;;;;;;5047272;28;20029;-62
2022/03/18 09:06:18;;;;;;;10.55;2.85;;;10.70;99.90;;;;;;5048155;28;20044;-61
2022/03/18 09:08:44;;;;;;;14.93;3.30;;;10.80;99.90;;;;;;5047601;28;20033;-62
2022/03/18 09:11:10;;;;;;;13.52;4.10;;;11.00;99.90;;;;;;5047509;28;20470;-62
2022/03/18 09:13:36;;;;;;;10.63;2.95;;;11.10;99.90;;;;;;5047526;28;20035;-64
2022/03/18 09:16:04;;;;;;;14.88;3.58;;;11.20;99.90;;;;;;5046481;28;20033;-63
2022/03/18 09:18:30;;;;;;;13.00;2.85;;;11.30;99.90;;;;;;5047348;28;20432;-62
2022/03/18 09:20:55;;;;;;;12.38;3.25;;;11.40;99.90;;;;;;5046820;28;20026;-62
2022/03/18 09:23:21;;;;;;;10.23;2.80;;;11.40;99.90;;;;;;5047607;28;20036;-61
2022/03/18 09:25:47;;;;;;;15.52;3.53;;;11.60;99.90;;;;;;5047777;28;20021;-61
2022/03/18 09:28:12;;;;;;;6.90;2.58;;;11.80;99.90;;;;;;5047448;28;20029;-61
2022/03/18 09:30:39;;;;;;;12.57;2.75;;;11.80;99.90;;;;;;5047084;28;20029;-61
2022/03/18 09:33:04;;;;;;;8.27;2.25;;;11.90;99.90;;;;;;5048655;28;20116;-60
2022/03/18 09:35:30;;;;;;;9.52;2.00;;;11.90;99.90;;;;;;5048886;28;20104;-60
2022/03/18 09:37:56;;;;;;;12.00;2.38;;;12.10;99.90;;;;;;5047809;28;20033;-60
2022/03/18 09:40:21;;;;;;;10.07;1.70;;;12.10;99.90;;;;;;5048330;28;20507;-61
2022/03/18 09:42:58;;;;;;;8.98;2.33;;;12.10;99.90;;;;;;5046267;28;20036;-60
2022/03/18 09:45:30;;;;;;;7.63;1.75;;;12.10;99.90;;;;;;5047052;28;20501;-62
2022/03/18 09:48:00;;;;;;;14.20;2.85;;;12.30;99.90;;;;;;5047675;28;20124;-60
2022/03/18 09:50:27;;;;;;;8.90;2.33;;;12.40;99.90;;;;;;5048109;28;20025;-62
2022/03/18 09:52:53;;;;;;;13.30;2.80;;;12.50;99.90;;;;;;5048062;28;20535;-61
2022/03/18 09:55:19;;;;;;;10.05;2.50;;;12.60;99.90;;;;;;5047314;28;20124;-60
2022/03/18 09:57:45;;;;;;;6.00;1.77;;;12.60;99.90;;;;;;5043853;28;20021;-62
2022/03/18 10:00:11;;;;;;;8.93;1.58;;;12.60;99.90;;;;;;5046481;28;20446;-62
2022/03/18 10:02:38;;;;;;;7.28;1.90;;;12.60;99.90;;;;;;5045778;28;20029;-61
2022/03/18 10:05:14;;;;;;;4.80;2.33;;;12.70;99.90;;;;;;5043858;28;20462;-62
2022/03/18 10:07:51;;;;;;;4.50;2.00;;;12.70;99.90;;;;;;5043313;28;20029;-61
2022/03/18 10:10:17;;;;;;;11.93;1.88;;;12.70;99.90;;;;;;5047768;28;20126;-60
2022/03/18 10:12:45;;;;;;;7.75;1.80;;;12.80;99.90;;;;;;5047274;28;20033;-60
2022/03/18 10:15:15;;;;;;;10.50;2.53;;;12.80;99.90;;;;;;5048951;28;20045;-61
2022/03/18 10:17:53;;;;;;;3.80;2.03;;;12.80;99.90;;;;;;5049635;28;20055;-62
2022/03/18 10:20:32;;;;;;;7.97;2.38;;;12.90;99.90;;;;;;5049149;28;20041;-60
2022/03/18 10:23:17;;;;;;;8.57;2.65;;;13.00;99.90;;;;;;5049242;28;20129;-60
2022/03/18 10:25:54;;;;;;;8.27;2.63;;;13.00;99.90;;;;;;5046592;28;20037;-61
2022/03/18 10:28:37;;;;;;;10.23;3.15;;;13.00;99.90;;;;;;5048256;28;20051;-60
2022/03/18 10:31:29;;;;;;;8.73;2.65;;;13.00;99.90;;;;;;5045377;28;20044;-62
2022/03/18 10:37:10;;;;;;;8.45;2.05;;;13.10;99.90;;;;;;5047172;28;20044;-61
2022/03/18 10:39:40;;;;;;;10.35;3.03;;;13.10;99.90;;;;;;5045768;28;20134;-60
2022/03/18 10:42:29;;;;;;;7.65;2.78;;;13.20;99.90;;;;;;5046662;28;20025;-61
2022/03/18 10:44:57;;;;;;;8.27;1.88;;;13.20;99.90;;;;;;5049077;28;20040;-60
2022/03/18 10:47:27;;;;;;;9.38;2.10;;;13.20;99.90;;;;;;5048246;28;20025;-60
2022/03/18 10:50:11;;;;;;;11.20;2.05;;;13.30;99.90;;;;;;5047989;28;20114;-60
2022/03/18 10:52:41;;;;;;;7.43;1.80;;;13.40;99.90;;;;;;5045853;28;20547;-60
2022/03/18 10:55:19;;;;;;;9.32;1.80;;;13.40;99.90;;;;;;5049257;28;20056;-60
2022/03/18 10:57:53;;;;;;;10.38;1.50;;;13.30;99.90;;;;;;5047574;28;20033;-60
2022/03/18 11:00:21;;;;;;;14.95;2.00;;;13.40;99.90;;;;;;5049014;28;20045;-62
2022/03/18 11:02:51;;;;;;;7.28;1.17;;;13.40;99.90;;;;;;5049285;28;20026;-60
2022/03/18 11:05:19;;;;;;;6.15;1.67;;;13.40;99.90;;;;;;5049274;28;20036;-59
2022/03/18 11:07:46;;;;;;;4.57;1.50;;;13.40;99.90;;;;;;5049032;28;20036;-60
2022/03/18 11:13:01;;;;;;;6.03;1.60;;;13.50;99.90;;;;;;5052758;28;20036;-60
2022/03/18 11:15:29;;;;;;;2.92;1.35;;;13.50;99.90;;;;;;5052673;28;20558;-60
2022/03/18 11:17:56;;;;;;;5.13;1.05;;;13.60;99.90;;;;;;5052483;28;20104;-60
2022/03/18 11:20:27;;;;;;;8.10;1.10;;;13.60;99.90;;;;;;5050318;28;20037;-61
2022/03/18 11:22:53;;;;;;;2.72;1.20;;;13.60;99.90;;;;;;5049079;28;20509;-58
2022/03/18 11:25:20;;;;;;;4.03;1.40;;;13.60;99.90;;;;;;5048529;28;20579;-61
2022/03/18 11:27:46;;;;;;;5.20;1.17;;;13.60;99.90;;;;;;5050258;28;20040;-60
2022/03/18 11:30:18;;;;;;;6.03;2.13;;;13.70;99.90;;;;;;5048432;28;20033;-60
2022/03/18 11:32:44;;;;;;;7.28;1.73;;;13.70;99.90;;;;;;5050585;28;20120;-61
2022/03/18 11:35:09;;;;;;;4.47;1.38;;;13.70;99.90;;;;;;5051867;28;20636;-60
2022/03/18 11:37:35;;;;;;;5.00;1.48;;;13.60;99.90;;;;;;5051338;28;20052;-61
2022/03/18 11:40:19;;;;;;;3.08;1.05;;;13.70;99.90;;;;;;5051102;28;20501;-60
2022/03/18 11:42:45;;;;;;;3.42;1.40;;;13.70;99.90;;;;;;5048180;28;20489;-60
2022/03/18 11:45:36;;;;;;;6.38;1.45;;;13.80;99.90;;;;;;5051599;28;20098;-61
2022/03/18 11:48:34;;;;;;;7.15;1.20;;;13.90;99.90;;;;;;5047600;28;20059;-61
2022/03/18 11:51:26;;;;;;;9.48;1.58;;;14.00;99.90;;;;;;5047627;28;20033;-61
2022/03/18 11:53:54;;;;;;;5.72;1.40;;;14.10;99.90;;;;;;5048170;28;20128;-63
2022/03/18 11:56:23;;;;;;;6.32;1.60;;;14.10;99.90;;;;;;5049595;28;20029;-60
2022/03/18 11:58:49;;;;;;;6.88;1.95;;;14.10;99.90;;;;;;5047699;28;20029;-62
2022/03/18 12:01:40;;;;;;;4.00;1.23;;;14.10;99.90;;;;;;5050474;28;20025;-63
2022/03/18 12:04:07;;;;;;;8.35;1.50;;;14.10;99.90;;;;;;5049817;28;20124;-61
2022/03/18 12:06:33;;;;;;;5.30;1.55;;;14.00;99.90;;;;;;5050103;28;20056;-65
2022/03/18 12:09:00;;;;;;;8.23;1.35;;;13.90;99.90;;;;;;5050149;28;20108;-61
2022/03/18 12:11:36;;;;;;;7.03;1.30;;;14.00;99.90;;;;;;5050043;28;20500;-62
2022/03/18 12:14:04;;;;;;;6.25;1.27;;;14.00;99.90;;;;;;5047184;28;20044;-61
2022/03/18 12:16:30;;;;;;;3.50;1.10;;;14.10;99.90;;;;;;5050431;28;20802;-60
2022/03/18 12:19:13;;;;;;;3.38;1.00;;;14.10;99.90;;;;;;5046813;28;20107;-61
2022/03/18 12:21:43;;;;;;;6.65;1.48;;;14.10;99.90;;;;;;5048453;28;20033;-60
2022/03/18 12:24:11;;;;;;;4.03;1.55;;;14.10;99.90;;;;;;5051770;28;20029;-60
2022/03/18 12:26:38;;;;;;;3.08;1.13;;;14.10;99.90;;;;;;5051290;28;20108;-60
2022/03/18 12:29:04;;;;;;;3.53;1.52;;;14.10;99.90;;;;;;5050201;28;20033;-60
2022/03/18 12:31:31;;;;;;;4.68;1.23;;;14.00;99.90;;;;;;5051412;28;20110;-60
2022/03/18 12:34:03;;;;;;;6.50;0.85;;;14.00;99.90;;;;;;5050120;28;20033;-60
2022/03/18 12:36:29;;;;;;;7.40;1.50;;;14.00;99.90;;;;;;5044148;28;20041;-60
2022/03/18 12:39:06;;;;;;;4.57;1.60;;;14.10;99.90;;;;;;5047310;28;20040;-60
2022/03/18 12:41:32;;;;;;;6.72;1.50;;;14.20;99.90;;;;;;5048467;28;20033;-60
2022/03/18 12:43:58;;;;;;;7.15;1.45;;;14.20;99.90;;;;;;5054694;28;20481;-60
2022/03/18 12:46:24;;;;;;;3.17;0.98;;;14.20;99.90;;;;;;5047058;28;20044;-61
2022/03/18 12:48:49;;;;;;;3.80;1.50;;;14.20;99.90;;;;;;5051387;28;20033;-61
2022/03/18 12:51:15;;;;;;;4.60;2.03;;;14.30;99.90;;;;;;5050100;28;20488;-60
2022/03/18 12:53:46;;;;;;;4.78;0.88;;;14.20;99.90;;;;;;5046439;28;20400;-60
2022/03/18 12:56:19;;;;;;;5.32;1.10;;;14.30;99.50;;;;;;5049758;28;20025;-60
2022/03/18 12:58:46;;;;;;;4.80;1.20;;;14.40;99.60;;;;;;5048808;28;20456;-60
2022/03/18 13:01:12;;;;;;;8.10;1.75;;;14.40;99.40;;;;;;5049014;28;20029;-60
2022/03/18 13:03:50;;;;;;;4.30;1.30;;;14.40;99.30;;;;;;5046697;28;20029;-60
2022/03/18 13:06:19;;;;;;;3.85;0.63;;;14.40;98.80;;;;;;5048833;28;20033;-60
2022/03/18 13:08:47;;;;;;;3.53;0.80;;;14.50;98.30;;;;;;5046304;28;20029;-60
2022/03/18 13:11:14;;;;;;;7.25;1.80;;;14.60;99.20;;;;;;5047398;28;20033;-60